sensor_id;sensor_type;location;lat;lon;timestamp;pressure;altitude;pressure_sealevel;temperature;humidity
31681;BME280;18281;51.364;9.566;2022-12-24T00:02:09;98915.91;;;6.05;100.00
31681;BME280;18281;51.364;9.566;2022-12-24T00:04:34;98912.56;;;6.03;100.00
31681;BME280;18281;51.364;9.566;2022-12-24T00:07:00;98920.47;;;6.01;100.00
31681;BME280;18281;51.364;9.566;2022-12-24T00:09:25;98929.09;;;6.02;100.00
31681;BME280;18281;51.364;9.566;2022-12-24T00:11:50;98930.88;;;6.01;100.00
31681;BME280;18281;51.364;9.566;2022-12-24T00:14:15;98937.91;;;5.99;100.00
31681;BME280;18281;51.364;9.566;2022-12-24T00:16:40;98945.81;;;5.98;100.00
31681;BME280;18281;51.364;9.566;2022-12-24T00:19:06;98938.94;;;5.97;100.00
31681;BME280;18281;51.364;9.566;2022-12-24T00:21:31;98946.81;;;5.95;100.00
31681;BME280;18281;51.364;9.566;2022-12-24T00:23:56;98949.44;;;5.95;100.00
31681;BME280;18281;51.364;9.566;2022-12-24T00:26:21;98953.03;;;5.93;100.00
31681;BME280;18281;51.364;9.566;2022-12-24T00:28:46;98960.94;;;5.91;100.00
31681;BME280;18281;51.364;9.566;2022-12-24T00:31:13;98963.53;;;5.91;100.00
31681;BME280;18281;51.364;9.566;2022-12-24T00:33:38;98966.84;;;5.95;100.00
31681;BME280;18281;51.364;9.566;2022-12-24T00:36:04;98961.03;;;5.89;100.00
31681;BME280;18281;51.364;9.566;2022-12-24T00:38:29;98967.94;;;5.90;100.00
31681;BME280;18281;51.364;9.566;2022-12-24T00:40:58;98964.47;;;5.90;100.00
31681;BME280;18281;51.364;9.566;2022-12-24T00:43:24;98964.38;;;5.92;100.00
31681;BME280;18281;51.364;9.566;2022-12-24T00:45:49;98966.16;;;5.91;100.00
31681;BME280;18281;51.364;9.566;2022-12-24T00:48:15;98971.34;;;5.91;100.00
31681;BME280;18281;51.364;9.566;2022-12-24T00:50:40;98973.06;;;5.92;100.00
31681;BME280;18281;51.364;9.566;2022-12-24T00:53:05;98978.50;;;5.87;100.00
31681;BME280;18281;51.364;9.566;2022-12-24T00:55:30;98977.75;;;5.85;100.00
31681;BME280;18281;51.364;9.566;2022-12-24T00:57:56;98976.06;;;5.84;100.00
31681;BME280;18281;51.364;9.566;2022-12-24T01:00:21;98970.75;;;5.86;100.00
31681;BME280;18281;51.364;9.566;2022-12-24T01:02:47;98982.94;;;5.85;100.00
31681;BME280;18281;51.364;9.566;2022-12-24T01:05:12;98982.94;;;5.85;100.00
31681;BME280;18281;51.364;9.566;2022-12-24T01:07:38;98987.38;;;5.83;100.00
31681;BME280;18281;51.364;9.566;2022-12-24T01:10:04;99000.41;;;5.83;100.00
31681;BME280;18281;51.364;9.566;2022-12-24T01:12:30;99012.50;;;5.84;100.00
31681;BME280;18281;51.364;9.566;2022-12-24T01:14:55;99009.91;;;5.84;100.00
31681;BME280;18281;51.364;9.566;2022-12-24T01:17:20;99025.63;;;5.83;100.00
31681;BME280;18281;51.364;9.566;2022-12-24T01:19:45;99027.22;;;5.85;100.00
31681;BME280;18281;51.364;9.566;2022-12-24T01:22:10;99034.19;;;5.85;100.00
31681;BME280;18281;51.364;9.566;2022-12-24T01:24:36;99033.81;;;5.75;100.00
31681;BME280;18281;51.364;9.566;2022-12-24T01:27:01;99034.13;;;5.86;100.00
31681;BME280;18281;51.364;9.566;2022-12-24T01:29:26;99028.59;;;5.93;100.00
31681;BME280;18281;51.364;9.566;2022-12-24T01:31:52;99028.88;;;6.04;100.00
31681;BME280;18281;51.364;9.566;2022-12-24T01:34:17;99023.31;;;6.10;100.00
31681;BME280;18281;51.364;9.566;2022-12-24T01:36:42;99034.34;;;6.15;100.00
31681;BME280;18281;51.364;9.566;2022-12-24T01:39:07;99041.47;;;5.96;100.00
31681;BME280;18281;51.364;9.566;2022-12-24T01:41:33;99057.06;;;6.13;100.00
31681;BME280;18281;51.364;9.566;2022-12-24T01:46:42;99036.97;;;6.15;100.00
31681;BME280;18281;51.364;9.566;2022-12-24T01:49:08;99051.25;;;6.08;100.00
31681;BME280;18281;51.364;9.566;2022-12-24T01:54:02;99054.06;;;6.03;100.00
31681;BME280;18281;51.364;9.566;2022-12-24T01:56:29;99052.72;;;5.96;100.00
31681;BME280;18281;51.364;9.566;2022-12-24T01:58:56;99064.91;;;5.96;100.00
31681;BME280;18281;51.364;9.566;2022-12-24T02:01:24;99068.19;;;5.99;100.00
31681;BME280;18281;51.364;9.566;2022-12-24T02:03:49;99069.41;;;6.10;100.00
31681;BME280;18281;51.364;9.566;2022-12-24T02:06:14;99075.19;;;5.99;100.00
31681;BME280;18281;51.364;9.566;2022-12-24T02:08:41;99073.78;;;5.92;100.00
31681;BME280;18281;51.364;9.566;2022-12-24T02:13:52;99087.88;;;5.87;100.00
31681;BME280;18281;51.364;9.566;2022-12-24T02:21:30;99115.97;;;5.82;100.00
31681;BME280;18281;51.364;9.566;2022-12-24T02:24:17;99113.19;;;5.85;100.00
31681;BME280;18281;51.364;9.566;2022-12-24T02:26:54;99116.72;;;5.84;100.00
31681;BME280;18281;51.364;9.566;2022-12-24T02:32:13;99131.63;;;5.81;100.00
31681;BME280;18281;51.364;9.566;2022-12-24T02:37:35;99133.25;;;5.83;100.00
31681;BME280;18281;51.364;9.566;2022-12-24T02:42:38;99150.72;;;5.81;100.00
31681;BME280;18281;51.364;9.566;2022-12-24T02:45:08;99146.28;;;5.83;100.00
31681;BME280;18281;51.364;9.566;2022-12-24T02:47:34;99154.00;;;5.85;100.00
31681;BME280;18281;51.364;9.566;2022-12-24T02:50:00;99145.44;;;5.83;100.00
31681;BME280;18281;51.364;9.566;2022-12-24T02:52:39;99153.34;;;5.81;100.00
31681;BME280;18281;51.364;9.566;2022-12-24T03:00:31;99172.09;;;5.88;100.00
31681;BME280;18281;51.364;9.566;2022-12-24T03:03:04;99177.97;;;5.92;100.00
31681;BME280;18281;51.364;9.566;2022-12-24T03:08:42;99186.34;;;5.81;100.00
31681;BME280;18281;51.364;9.566;2022-12-24T03:11:09;99197.69;;;5.80;100.00
31681;BME280;18281;51.364;9.566;2022-12-24T03:13:35;99210.72;;;5.80;100.00
31681;BME280;18281;51.364;9.566;2022-12-24T03:16:05;99206.56;;;5.76;100.00
31681;BME280;18281;51.364;9.566;2022-12-24T03:18:31;99204.81;;;5.76;100.00
31681;BME280;18281;51.364;9.566;2022-12-24T03:20:59;99218.09;;;5.70;100.00
31681;BME280;18281;51.364;9.566;2022-12-24T03:23:25;99212.22;;;5.66;100.00
31681;BME280;18281;51.364;9.566;2022-12-24T03:25:51;99213.22;;;5.64;100.00
31681;BME280;18281;51.364;9.566;2022-12-24T03:28:16;99214.03;;;5.64;100.00
31681;BME280;18281;51.364;9.566;2022-12-24T03:30:43;99228.84;;;5.64;100.00
31681;BME280;18281;51.364;9.566;2022-12-24T03:33:09;99232.19;;;5.66;100.00
31681;BME280;18281;51.364;9.566;2022-12-24T03:35:35;99233.19;;;5.63;100.00
31681;BME280;18281;51.364;9.566;2022-12-24T03:38:00;99237.28;;;5.69;100.00
31681;BME280;18281;51.364;9.566;2022-12-24T03:40:25;99240.09;;;5.64;100.00
31681;BME280;18281;51.364;9.566;2022-12-24T03:42:51;99251.50;;;5.62;100.00
31681;BME280;18281;51.364;9.566;2022-12-24T03:45:16;99251.66;;;5.59;100.00
31681;BME280;18281;51.364;9.566;2022-12-24T03:47:41;99252.69;;;5.54;100.00
31681;BME280;18281;51.364;9.566;2022-12-24T03:50:06;99259.59;;;5.55;100.00
31681;BME280;18281;51.364;9.566;2022-12-24T03:52:32;99265.84;;;5.51;100.00
31681;BME280;18281;51.364;9.566;2022-12-24T03:54:57;99272.91;;;5.49;100.00
31681;BME280;18281;51.364;9.566;2022-12-24T03:57:22;99273.06;;;5.46;100.00
31681;BME280;18281;51.364;9.566;2022-12-24T03:59:47;99280.84;;;5.46;100.00
31681;BME280;18281;51.364;9.566;2022-12-24T04:02:13;99281.06;;;5.42;100.00
31681;BME280;18281;51.364;9.566;2022-12-24T04:04:38;99267.28;;;5.39;100.00
31681;BME280;18281;51.364;9.566;2022-12-24T04:07:04;99270.13;;;5.33;100.00
31681;BME280;18281;51.364;9.566;2022-12-24T04:09:29;99276.97;;;5.36;100.00
31681;BME280;18281;51.364;9.566;2022-12-24T04:11:54;99278.75;;;5.34;100.00
31681;BME280;18281;51.364;9.566;2022-12-24T04:14:19;99283.28;;;5.30;100.00
31681;BME280;18281;51.364;9.566;2022-12-24T04:16:45;99281.53;;;5.31;100.00
31681;BME280;18281;51.364;9.566;2022-12-24T04:19:10;99283.31;;;5.29;100.00
31681;BME280;18281;51.364;9.566;2022-12-24T04:21:35;99279.00;;;5.29;100.00
31681;BME280;18281;51.364;9.566;2022-12-24T04:24:00;99291.22;;;5.27;100.00
31681;BME280;18281;51.364;9.566;2022-12-24T04:26:25;99291.28;;;5.26;100.00
31681;BME280;18281;51.364;9.566;2022-12-24T04:28:51;99296.50;;;5.26;100.00
31681;BME280;18281;51.364;9.566;2022-12-24T04:31:17;99292.41;;;5.20;100.00
31681;BME280;18281;51.364;9.566;2022-12-24T04:33:42;99293.25;;;5.20;100.00
31681;BME280;18281;51.364;9.566;2022-12-24T04:36:09;99297.94;;;5.12;100.00
31681;BME280;18281;51.364;9.566;2022-12-24T04:38:36;99309.22;;;5.13;100.00
31681;BME280;18281;51.364;9.566;2022-12-24T04:41:05;99313.31;;;4.98;100.00
31681;BME280;18281;51.364;9.566;2022-12-24T04:43:31;99319.16;;;5.03;100.00
31681;BME280;18281;51.364;9.566;2022-12-24T04:46:02;99306.31;;;5.00;100.00
31681;BME280;18281;51.364;9.566;2022-12-24T04:48:27;99305.03;;;5.09;100.00
31681;BME280;18281;51.364;9.566;2022-12-24T04:50:53;99307.63;;;5.09;100.00
31681;BME280;18281;51.364;9.566;2022-12-24T04:53:18;99294.69;;;5.07;100.00
31681;BME280;18281;51.364;9.566;2022-12-24T04:55:44;99298.44;;;5.20;100.00
31681;BME280;18281;51.364;9.566;2022-12-24T04:58:10;99303.00;;;5.15;100.00
31681;BME280;18281;51.364;9.566;2022-12-24T05:00:35;99299.81;;;5.29;100.00
31681;BME280;18281;51.364;9.566;2022-12-24T05:03:00;99301.06;;;5.20;100.00
31681;BME280;18281;51.364;9.566;2022-12-24T05:05:25;99301.69;;;5.26;100.00
31681;BME280;18281;51.364;9.566;2022-12-24T05:07:51;99306.41;;;5.17;100.00
31681;BME280;18281;51.364;9.566;2022-12-24T05:10:16;99303.94;;;5.14;100.00
31681;BME280;18281;51.364;9.566;2022-12-24T05:12:41;99306.63;;;5.13;100.00
31681;BME280;18281;51.364;9.566;2022-12-24T05:15:06;99322.50;;;5.06;100.00
31681;BME280;18281;51.364;9.566;2022-12-24T05:17:32;99326.84;;;5.06;100.00
31681;BME280;18281;51.364;9.566;2022-12-24T05:19:57;99332.97;;;5.05;100.00
31681;BME280;18281;51.364;9.566;2022-12-24T05:22:22;99337.78;;;4.94;100.00
31681;BME280;18281;51.364;9.566;2022-12-24T05:25:07;99339.72;;;4.88;100.00
31681;BME280;18281;51.364;9.566;2022-12-24T05:27:51;99334.41;;;4.92;100.00
31681;BME280;18281;51.364;9.566;2022-12-24T05:30:18;99333.53;;;4.91;100.00
31681;BME280;18281;51.364;9.566;2022-12-24T05:32:44;99337.91;;;4.90;100.00
31681;BME280;18281;51.364;9.566;2022-12-24T05:35:09;99347.72;;;4.84;100.00
31681;BME280;18281;51.364;9.566;2022-12-24T05:37:34;99348.56;;;4.84;100.00
31681;BME280;18281;51.364;9.566;2022-12-24T05:39:59;99346.31;;;4.77;100.00
31681;BME280;18281;51.364;9.566;2022-12-24T05:42:24;99354.03;;;4.78;100.00
31681;BME280;18281;51.364;9.566;2022-12-24T05:44:50;99354.81;;;4.80;100.00
31681;BME280;18281;51.364;9.566;2022-12-24T05:47:15;99350.34;;;4.84;100.00
31681;BME280;18281;51.364;9.566;2022-12-24T05:49:40;99356.50;;;4.81;100.00
31681;BME280;18281;51.364;9.566;2022-12-24T05:52:05;99350.78;;;4.73;100.00
31681;BME280;18281;51.364;9.566;2022-12-24T05:54:31;99345.44;;;4.76;100.00
31681;BME280;18281;51.364;9.566;2022-12-24T05:56:56;99345.66;;;4.71;100.00
31681;BME280;18281;51.364;9.566;2022-12-24T05:59:21;99356.22;;;4.67;100.00
31681;BME280;18281;51.364;9.566;2022-12-24T06:01:46;99346.75;;;4.66;100.00
31681;BME280;18281;51.364;9.566;2022-12-24T06:04:12;99359.94;;;4.61;100.00
31681;BME280;18281;51.364;9.566;2022-12-24T06:06:37;99363.66;;;4.55;100.00
31681;BME280;18281;51.364;9.566;2022-12-24T06:09:02;99366.25;;;4.55;100.00
31681;BME280;18281;51.364;9.566;2022-12-24T06:11:28;99377.53;;;4.54;100.00
31681;BME280;18281;51.364;9.566;2022-12-24T06:13:53;99369.16;;;4.48;100.00
31681;BME280;18281;51.364;9.566;2022-12-24T06:16:20;99382.22;;;4.46;100.00
31681;BME280;18281;51.364;9.566;2022-12-24T06:18:45;99369.22;;;4.46;100.00
31681;BME280;18281;51.364;9.566;2022-12-24T06:21:11;99376.19;;;4.46;100.00
31681;BME280;18281;51.364;9.566;2022-12-24T06:23:37;99377.16;;;4.43;100.00
31681;BME280;18281;51.364;9.566;2022-12-24T06:26:03;99392.75;;;4.43;100.00
31681;BME280;18281;51.364;9.566;2022-12-24T06:28:30;99388.31;;;4.45;100.00
31681;BME280;18281;51.364;9.566;2022-12-24T06:30:55;99388.56;;;4.39;100.00
31681;BME280;18281;51.364;9.566;2022-12-24T06:33:21;99379.38;;;4.52;100.00
31681;BME280;18281;51.364;9.566;2022-12-24T06:35:46;99388.16;;;4.50;100.00
31681;BME280;18281;51.364;9.566;2022-12-24T06:38:13;99395.94;;;4.50;100.00
31681;BME280;18281;51.364;9.566;2022-12-24T06:40:39;99390.75;;;4.50;100.00
31681;BME280;18281;51.364;9.566;2022-12-24T06:43:04;99382.22;;;4.46;100.00
31681;BME280;18281;51.364;9.566;2022-12-24T06:45:29;99369.22;;;4.46;100.00
31681;BME280;18281;51.364;9.566;2022-12-24T06:47:56;99382.97;;;4.48;100.00
31681;BME280;18281;51.364;9.566;2022-12-24T06:50:21;99392.91;;;5.22;100.00
31681;BME280;18281;51.364;9.566;2022-12-24T06:52:46;99409.50;;;5.80;100.00
31681;BME280;18281;51.364;9.566;2022-12-24T07:55:53;99485.94;;;4.97;100.00
31681;BME280;18281;51.364;9.566;2022-12-24T07:58:19;99478.00;;;5.00;100.00
31681;BME280;18281;51.364;9.566;2022-12-24T08:00:45;99488.88;;;5.10;100.00
31681;BME280;18281;51.364;9.566;2022-12-24T08:03:15;99496.06;;;5.03;100.00
31681;BME280;18281;51.364;9.566;2022-12-24T08:05:44;99491.00;;;5.00;100.00
31681;BME280;18281;51.364;9.566;2022-12-24T08:08:09;99497.56;;;5.09;100.00
31681;BME280;18281;51.364;9.566;2022-12-24T08:10:37;99487.06;;;5.12;100.00
31681;BME280;18281;51.364;9.566;2022-12-24T08:13:05;99501.94;;;5.08;100.00
31681;BME280;18281;51.364;9.566;2022-12-24T08:15:41;99510.44;;;5.75;100.00
31681;BME280;18281;51.364;9.566;2022-12-24T08:18:07;99510.94;;;6.23;100.00
31681;BME280;18281;51.364;9.566;2022-12-24T08:20:32;99507.91;;;6.51;100.00
31681;BME280;18281;51.364;9.566;2022-12-24T08:22:57;99505.69;;;6.80;100.00
31681;BME280;18281;51.364;9.566;2022-12-24T08:25:22;99517.88;;;6.80;100.00
31681;BME280;18281;51.364;9.566;2022-12-24T08:27:48;99506.16;;;6.88;100.00
31681;BME280;18281;51.364;9.566;2022-12-24T08:30:13;99504.97;;;6.96;100.00
31681;BME280;18281;51.364;9.566;2022-12-24T08:32:38;99498.31;;;7.07;100.00
31681;BME280;18281;51.364;9.566;2022-12-24T08:35:04;99497.16;;;7.13;100.00
31681;BME280;18281;51.364;9.566;2022-12-24T08:37:29;99509.75;;;7.22;100.00
31681;BME280;18281;51.364;9.566;2022-12-24T08:39:55;99512.16;;;7.27;100.00
31681;BME280;18281;51.364;9.566;2022-12-24T08:42:23;99514.22;;;7.38;100.00
31681;BME280;18281;51.364;9.566;2022-12-24T08:44:48;99510.44;;;7.44;100.00
31681;BME280;18281;51.364;9.566;2022-12-24T08:47:13;99507.59;;;7.48;100.00
31681;BME280;18281;51.364;9.566;2022-12-24T08:49:39;99523.34;;;7.47;100.00
31681;BME280;18281;51.364;9.566;2022-12-24T08:52:04;99528.28;;;7.53;100.00
31681;BME280;18281;51.364;9.566;2022-12-24T08:54:30;99530.34;;;7.64;100.00
31681;BME280;18281;51.364;9.566;2022-12-24T08:59:33;99536.31;;;7.83;100.00
31681;BME280;18281;51.364;9.566;2022-12-24T09:01:58;99544.09;;;7.67;100.00
31681;BME280;18281;51.364;9.566;2022-12-24T09:04:24;99552.47;;;7.56;100.00
31681;BME280;18281;51.364;9.566;2022-12-24T09:06:49;99552.59;;;7.36;100.00
31681;BME280;18281;51.364;9.566;2022-12-24T09:09:14;99559.34;;;7.22;100.00
31681;BME280;18281;51.364;9.566;2022-12-24T09:11:39;99559.78;;;6.96;100.00
31681;BME280;18281;51.364;9.566;2022-12-24T09:14:05;99561.03;;;6.87;100.00
31681;BME280;18281;51.364;9.566;2022-12-24T09:16:30;99580.56;;;6.78;100.00
31681;BME280;18281;51.364;9.566;2022-12-24T09:18:56;99578.03;;;6.77;100.00
31681;BME280;18281;51.364;9.566;2022-12-24T09:21:21;99578.38;;;6.69;100.00
31681;BME280;18281;51.364;9.566;2022-12-24T09:23:46;99583.13;;;6.61;100.00
31681;BME280;18281;51.364;9.566;2022-12-24T09:26:13;99590.53;;;6.51;100.00
31681;BME280;18281;51.364;9.566;2022-12-24T09:28:39;99590.06;;;6.41;100.00
31681;BME280;18281;51.364;9.566;2022-12-24T09:31:10;99597.84;;;6.81;100.00
31681;BME280;18281;51.364;9.566;2022-12-24T09:33:39;99594.44;;;7.17;100.00
31681;BME280;18281;51.364;9.566;2022-12-24T11:07:34;99673.41;;;6.63;100.00
31681;BME280;18281;51.364;9.566;2022-12-24T11:10:05;99674.00;;;6.70;100.00
31681;BME280;18281;51.364;9.566;2022-12-24T11:12:35;99670.31;;;6.74;100.00
31681;BME280;18281;51.364;9.566;2022-12-24T11:15:25;99675.41;;;6.77;100.00
31681;BME280;18281;51.364;9.566;2022-12-24T11:17:59;99676.59;;;6.70;100.00
31681;BME280;18281;51.364;9.566;2022-12-24T11:20:29;99674.00;;;6.70;100.00
31681;BME280;18281;51.364;9.566;2022-12-24T11:22:55;99674.00;;;6.70;100.00
31681;BME280;18281;51.364;9.566;2022-12-24T11:25:26;99682.97;;;7.21;100.00
31681;BME280;18281;51.364;9.566;2022-12-24T11:27:54;99678.13;;;7.33;100.00
31681;BME280;18281;51.364;9.566;2022-12-24T11:30:28;99677.41;;;7.29;100.00
31681;BME280;18281;51.364;9.566;2022-12-24T11:35:27;99671.06;;;7.16;100.00
31681;BME280;18281;51.364;9.566;2022-12-24T11:40:30;99672.78;;;6.98;100.00
31681;BME280;18281;51.364;9.566;2022-12-24T11:42:59;99667.78;;;6.91;100.00
31681;BME280;18281;51.364;9.566;2022-12-24T11:45:27;99669.75;;;6.86;100.00
31681;BME280;18281;51.364;9.566;2022-12-24T11:47:54;99661.66;;;6.93;100.00
31681;BME280;18281;51.364;9.566;2022-12-24T11:53:17;99657.31;;;7.12;100.00
31681;BME280;18281;51.364;9.566;2022-12-24T11:55:47;99655.63;;;7.11;100.00
31681;BME280;18281;51.364;9.566;2022-12-24T12:03:45;99668.53;;;7.14;100.00
31681;BME280;18281;51.364;9.566;2022-12-24T12:08:55;99667.06;;;7.09;100.00
31681;BME280;18281;51.364;9.566;2022-12-24T12:11:21;99661.75;;;7.10;100.00
31681;BME280;18281;51.364;9.566;2022-12-24T12:13:48;99654.84;;;7.09;100.00
31681;BME280;18281;51.364;9.566;2022-12-24T12:16:25;99660.44;;;7.20;100.00
31681;BME280;18281;51.364;9.566;2022-12-24T12:18:58;99663.03;;;7.20;100.00
31681;BME280;18281;51.364;9.566;2022-12-24T12:21:36;99667.91;;;7.09;100.00
31681;BME280;18281;51.364;9.566;2022-12-24T12:24:13;99665.44;;;7.06;100.00
31681;BME280;18281;51.364;9.566;2022-12-24T12:26:41;99675.69;;;7.28;100.00
31681;BME280;18281;51.364;9.566;2022-12-24T12:29:31;99671.81;;;7.37;100.00
31681;BME280;18281;51.364;9.566;2022-12-24T12:32:15;99673.66;;;7.35;100.00
31681;BME280;18281;51.364;9.566;2022-12-24T12:35:20;99672.34;;;7.26;100.00
31681;BME280;18281;51.364;9.566;2022-12-24T12:37:51;99672.34;;;7.26;100.00
31681;BME280;18281;51.364;9.566;2022-12-24T12:40:18;99673.69;;;7.16;100.00
31681;BME280;18281;51.364;9.566;2022-12-24T12:42:57;99683.91;;;7.20;100.00
31681;BME280;18281;51.364;9.566;2022-12-24T12:45:44;99683.97;;;7.19;100.00
31681;BME280;18281;51.364;9.566;2022-12-24T12:48:39;99688.91;;;7.25;100.00
31681;BME280;18281;51.364;9.566;2022-12-24T12:51:22;99682.69;;;7.28;100.00
31681;BME280;18281;51.364;9.566;2022-12-24T12:56:50;99690.19;;;7.16;100.00
31681;BME280;18281;51.364;9.566;2022-12-24T13:02:15;99703.88;;;7.21;100.00
31681;BME280;18281;51.364;9.566;2022-12-24T13:16:17;99719.03;;;7.32;100.00
31681;BME280;18281;51.364;9.566;2022-12-24T13:21:33;99723.91;;;7.21;100.00
31681;BME280;18281;51.364;9.566;2022-12-24T13:24:15;99730.47;;;7.11;100.00
31681;BME280;18281;51.364;9.566;2022-12-24T13:29:59;99726.13;;;7.11;100.00
31681;BME280;18281;51.364;9.566;2022-12-24T13:35:03;99744.38;;;7.11;100.00
31681;BME280;18281;51.364;9.566;2022-12-24T13:37:47;99744.38;;;7.11;100.00
31681;BME280;18281;51.364;9.566;2022-12-24T13:40:15;99751.66;;;7.23;100.00
31681;BME280;18281;51.364;9.566;2022-12-24T13:50:27;99776.59;;;8.40;100.00
31681;BME280;18281;51.364;9.566;2022-12-24T13:52:54;99782.13;;;8.52;100.00
31681;BME280;18281;51.364;9.566;2022-12-24T13:55:20;99784.59;;;8.55;100.00
31681;BME280;18281;51.364;9.566;2022-12-24T13:58:03;99784.88;;;8.49;100.00
31681;BME280;18281;51.364;9.566;2022-12-24T14:05:26;99780.16;;;8.20;100.00
31681;BME280;18281;51.364;9.566;2022-12-24T14:07:55;99773.63;;;8.12;100.00
31681;BME280;18281;51.364;9.566;2022-12-24T14:10:27;99773.31;;;8.00;100.00
31681;BME280;18281;51.364;9.566;2022-12-24T14:12:54;99780.38;;;7.98;100.00
31681;BME280;18281;51.364;9.566;2022-12-24T14:18:17;99782.09;;;7.80;100.00
31681;BME280;18281;51.364;9.566;2022-12-24T14:20:48;99786.56;;;7.78;100.00
31681;BME280;18281;51.364;9.566;2022-12-24T14:23:32;99790.84;;;7.79;100.00
31681;BME280;18281;51.364;9.566;2022-12-24T14:26:00;99781.47;;;7.75;100.00
31681;BME280;18281;51.364;9.566;2022-12-24T14:28:34;99786.22;;;7.67;100.00
31681;BME280;18281;51.364;9.566;2022-12-24T14:31:10;99787.94;;;7.49;100.00
31681;BME280;18281;51.364;9.566;2022-12-24T14:33:37;99786.94;;;7.51;100.00
31681;BME280;18281;51.364;9.566;2022-12-24T14:36:03;99795.97;;;7.44;100.00
31681;BME280;18281;51.364;9.566;2022-12-24T14:38:29;99790.25;;;7.36;100.00
31681;BME280;18281;51.364;9.566;2022-12-24T14:41:03;99801.91;;;7.29;100.00
31681;BME280;18281;51.364;9.566;2022-12-24T14:43:45;99810.56;;;7.29;100.00
31681;BME280;18281;51.364;9.566;2022-12-24T14:48:55;99815.44;;;7.18;100.00
31681;BME280;18281;51.364;9.566;2022-12-24T14:51:27;99808.53;;;7.17;100.00
31681;BME280;18281;51.364;9.566;2022-12-24T14:54:23;99814.88;;;7.11;100.00
31681;BME280;18281;51.364;9.566;2022-12-24T14:59:59;99816.69;;;7.09;100.00
31681;BME280;18281;51.364;9.566;2022-12-24T15:02:46;99824.75;;;7.04;100.00
31681;BME280;18281;51.364;9.566;2022-12-24T15:05:14;99838.13;;;6.97;100.00
31681;BME280;18281;51.364;9.566;2022-12-24T15:07:45;99834.97;;;7.09;100.00
31681;BME280;18281;51.364;9.566;2022-12-24T15:10:26;99841.97;;;7.28;100.00
31681;BME280;18281;51.364;9.566;2022-12-24T15:12:53;99840.44;;;7.43;100.00
31681;BME280;18281;51.364;9.566;2022-12-24T15:15:19;99852.59;;;7.44;100.00
31681;BME280;18281;51.364;9.566;2022-12-24T15:17:45;99856.97;;;7.43;100.00
31681;BME280;18281;51.364;9.566;2022-12-24T15:20:17;99862.25;;;7.41;100.00
31681;BME280;18281;51.364;9.566;2022-12-24T15:22:45;99862.06;;;7.46;100.00
31681;BME280;18281;51.364;9.566;2022-12-24T15:25:22;99864.44;;;7.51;100.00
31681;BME280;18281;51.364;9.566;2022-12-24T15:27:47;99867.94;;;7.51;100.00
31681;BME280;18281;51.364;9.566;2022-12-24T15:30:16;99874.06;;;7.50;100.00
31681;BME280;18281;51.364;9.566;2022-12-24T15:32:42;99869.91;;;7.46;100.00
31681;BME280;18281;51.364;9.566;2022-12-24T15:37:57;99880.03;;;7.33;100.00
31681;BME280;18281;51.364;9.566;2022-12-24T15:40:24;99885.25;;;7.33;100.00
31681;BME280;18281;51.364;9.566;2022-12-24T15:42:50;99889.06;;;7.26;100.00
31681;BME280;18281;51.364;9.566;2022-12-24T15:45:26;99901.25;;;7.26;100.00
31681;BME280;18281;51.364;9.566;2022-12-24T15:47:55;99892.41;;;7.09;100.00
31681;BME280;18281;51.364;9.566;2022-12-24T15:50:27;99906.75;;;6.99;100.00
31681;BME280;18281;51.364;9.566;2022-12-24T15:52:55;99899.06;;;6.96;100.00
31681;BME280;18281;51.364;9.566;2022-12-24T15:55:44;99901.94;;;6.88;100.00
31681;BME280;18281;51.364;9.566;2022-12-24T15:58:22;99904.91;;;6.80;100.00
31681;BME280;18281;51.364;9.566;2022-12-24T16:03:34;99906.94;;;6.72;100.00
31681;BME280;18281;51.364;9.566;2022-12-24T16:06:04;99903.94;;;6.61;100.00
31681;BME280;18281;51.364;9.566;2022-12-24T16:08:35;99906.16;;;6.49;100.00
31681;BME280;18281;51.364;9.566;2022-12-24T16:13:29;99905.94;;;6.32;100.00
31681;BME280;18281;51.364;9.566;2022-12-24T16:16:02;99913.00;;;6.30;100.00
31681;BME280;18281;51.364;9.566;2022-12-24T16:18:34;99916.50;;;6.29;100.00
31681;BME280;18281;51.364;9.566;2022-12-24T16:21:00;99928.59;;;6.31;100.00
31681;BME280;18281;51.364;9.566;2022-12-24T16:23:32;99924.47;;;6.26;100.00
31681;BME280;18281;51.364;9.566;2022-12-24T16:25:58;99930.63;;;6.23;100.00
31681;BME280;18281;51.364;9.566;2022-12-24T16:28:25;99936.28;;;6.12;100.00
31681;BME280;18281;51.364;9.566;2022-12-24T16:30:51;99929.41;;;6.10;100.00
31681;BME280;18281;51.364;9.566;2022-12-24T16:33:19;99927.09;;;6.02;100.00
31681;BME280;18281;51.364;9.566;2022-12-24T16:35:45;99941.28;;;5.95;100.00
31681;BME280;18281;51.364;9.566;2022-12-24T16:38:11;99930.16;;;5.89;100.00
31681;BME280;18281;51.364;9.566;2022-12-24T16:40:39;99923.78;;;5.75;100.00
31681;BME280;18281;51.364;9.566;2022-12-24T16:43:04;99926.53;;;5.70;100.00
31681;BME280;18281;51.364;9.566;2022-12-24T16:45:48;99933.91;;;5.59;100.00
31681;BME280;18281;51.364;9.566;2022-12-24T16:48:20;99935.81;;;5.53;100.00
31681;BME280;18281;51.364;9.566;2022-12-24T16:50:46;99945.66;;;5.45;100.00
31681;BME280;18281;51.364;9.566;2022-12-24T16:53:13;99948.59;;;5.36;100.00
31681;BME280;18281;51.364;9.566;2022-12-24T16:55:40;99945.25;;;5.31;100.00
31681;BME280;18281;51.364;9.566;2022-12-24T16:58:05;99950.78;;;5.21;100.00
31681;BME280;18281;51.364;9.566;2022-12-24T17:00:30;99940.47;;;5.18;100.00
31681;BME280;18281;51.364;9.566;2022-12-24T17:02:56;99946.78;;;5.11;100.00
31681;BME280;18281;51.364;9.566;2022-12-24T17:05:21;99957.19;;;5.11;100.00
31681;BME280;18281;51.364;9.566;2022-12-24T17:07:48;99961.81;;;5.03;100.00
31681;BME280;18281;51.364;9.566;2022-12-24T17:10:14;99967.59;;;5.11;100.00
31681;BME280;18281;51.364;9.566;2022-12-24T17:12:40;99969.25;;;5.14;100.00
31681;BME280;18281;51.364;9.566;2022-12-24T17:15:06;99972.03;;;5.09;100.00
31681;BME280;18281;51.364;9.566;2022-12-24T17:17:32;99975.69;;;5.03;100.00
31681;BME280;18281;51.364;9.566;2022-12-24T17:19:57;99967.31;;;4.94;100.00
31681;BME280;18281;51.364;9.566;2022-12-24T17:22:24;99967.72;;;4.81;100.00